MMTP/TAP METAR and TAF weather

Enter ICAO airport designator
Station Type Date Time Source
MMTP METAR 2020/04/05 12:03 UTC NOAA

MMTP 051203Z RTD 00000KT 6SM FEW160 BKN180 23/23 A2981 RMK SLP120 903 8/045 HZY BR ALQDS VC RTS


Station Type Date Time Source
MMTP Decoded METAR 2020/04/05 12:03 UTC NOAA

Tapachula , Mexico (MMTP) 14-47N 092-23W
Apr 05, 2020 - 08:03 AM EDT / 2020.04.05 1203 UTC
Wind: Calm:0
Visibility: 6 mile(s):0
Sky conditions: mostly cloudy
Temperature: 73 F (23 C)
Dew Point: 73 F (23 C)
Relative Humidity: 100%
Pressure (altimeter): 29.81 in. Hg (1009 hPa)
ob: MMTP 051203Z RTD 00000KT 6SM FEW160 BKN180 23/23 A2981 RMK SLP120 903 8/045 HZY BR ALQDS VC RTS
cycle: 12

Station Type Date Time Source
MMTP TAF 2020/04/05 12:15 UTC NOAA

TAF MMTP 051108Z 0512/0618 00000KT P6SM SKC
FM051600 24010KT P6SM SKC
FM051800 24010KT P6SM SCT030
FM060200 00000KT P6SM SCT030
FM061700 24010KT P6SM SCT030

Example: see airport list